Historique des mesures à Cassis (13260), France
Quotidien Résumé Janvier 29, 2018 Unités:  Métrique/US    US   Métrique
« Précédent (Jour)
Suivant (Jour) »
Quotidien Hebdomadaire Mensuel Annuel Période au choix
  Maximum: Minimum: Moyenne:
Température: TemperatureC °F /  -17.8 °C 7.8 °F /  -13.4 °C 9.6 °F /  -12.4 °C
Point de rosée: DewpointC °F /  -17.8 °C 5.4 °F /  -14.8 °C 6.4 °F /  -14.2 °C
Humidité: Humidity % 72 % 77 %
Vitesse du vent: WindSpeedKMH mph /  0 km/h - 1.3 mph /  2.1 km/h
Rafales: WindSpeedGustKMH mph /  0 km/h - -
Vent:- - WSW
Pression: PressurehPa in /  0 hPa 1027.0 in /  34774.2 hPa -
Précipitations: 0.0 in /  0 mm    
Historical Graphs
 
 
Mesures pour : Janvier 29, 2018
Heure Temperature Point de rosée Pression Vent Vitesse du vent Rafales Humidité Pluie (par heure) Conditions
TemperatureC °F /  -17.8 °C DewpointC °F /  -17.8 °C PressurehPa in /  0 hPa Calm     Humidity % HourlyPrecipMM in /  0 mm SoftwareType W/m2
00:12 8.9 °F /  -12.8 °C 5.9 °F /  -14.5 °C 1030.4 in /  34889.3 hPa Calm     82 % 0.0 in /  0 mm open2300-1.11 W/m2
01:12 9.1 °F /  -12.7 °C 6.2 °F /  -14.3 °C 1030.0 in /  34875.8 hPa Calm   1.4 mph /  2.3 km/h 82 % 0.0 in /  0 mm open2300-1.11 W/m2
02:12 8.6 °F /  -13 °C 5.8 °F /  -14.6 °C 1030.0 in /  34875.8 hPa Calm     83 % 0.0 in /  0 mm open2300-1.11 W/m2
03:12 8.9 °F /  -12.8 °C 5.9 °F /  -14.5 °C 1030.0 in /  34875.8 hPa Calm   1.1 mph /  1.8 km/h 82 % 0.0 in /  0 mm open2300-1.11 W/m2
04:12 8.3 °F /  -13.2 °C 5.6 °F /  -14.7 °C 1029.7 in /  34865.6 hPa NNW 2.1 mph /  3.4 km/h 2.1 mph /  3.4 km/h 83 % 0.0 in /  0 mm open2300-1.11 W/m2
05:12 8.2 °F /  -13.2 °C 5.8 °F /  -14.6 °C 1029.7 in /  34865.6 hPa WNW 3.2 mph /  5.1 km/h 5.8 mph /  9.3 km/h 85 % 0.0 in /  0 mm open2300-1.11 W/m2
06:12 8.1 °F /  -13.3 °C 5.9 °F /  -14.5 °C 1030.0 in /  34875.8 hPa NW 3.2 mph /  5.1 km/h 3.2 mph /  5.1 km/h 86 % 0.0 in /  0 mm open2300-1.11 W/m2
07:12 7.9 °F /  -13.4 °C 5.6 °F /  -14.7 °C 1029.7 in /  34865.6 hPa Calm   4.0 mph /  6.4 km/h 85 % 0.0 in /  0 mm open2300-1.11 W/m2
08:12 7.8 °F /  -13.4 °C 5.4 °F /  -14.8 °C 1030.0 in /  34875.8 hPa WNW 5.0 mph /  8 km/h 5.0 mph /  8 km/h 85 % 0.0 in /  0 mm open2300-1.11 W/m2
09:12 8.6 °F /  -13 °C 6.1 °F /  -14.4 °C 1030.0 in /  34875.8 hPa WNW 3.5 mph /  5.6 km/h 6.1 mph /  9.8 km/h 84 % 0.0 in /  0 mm open2300-1.11 W/m2
10:12 9.5 °F /  -12.5 °C 6.4 °F /  -14.2 °C 1030.4 in /  34889.3 hPa Calm   1.8 mph /  2.9 km/h 81 % 0.0 in /  0 mm open2300-1.11 W/m2
11:12 11.3 °F /  -11.5 °C 7.8 °F /  -13.4 °C 1030.4 in /  34889.3 hPa Calm   3.5 mph /  5.6 km/h 79 % 0.0 in /  0 mm open2300-1.11 W/m2
12:12 12.8 °F /  -10.7 °C 8.4 °F /  -13.1 °C 1030.0 in /  34875.8 hPa Calm   2.6 mph /  4.2 km/h 75 % 0.0 in /  0 mm open2300-1.11 W/m2
13:12 13.4 °F /  -10.3 °C 8.6 °F /  -13 °C 1029.3 in /  34852.1 hPa Calm   3.2 mph /  5.1 km/h 73 % 0.0 in /  0 mm open2300-1.11 W/m2
14:12 13.6 °F /  -10.2 °C 8.6 °F /  -13 °C 1028.3 in /  34818.2 hPa South 3.5 mph /  5.6 km/h 4.3 mph /  6.9 km/h 72 % 0.0 in /  0 mm open2300-1.11 W/m2
15:12 13.4 °F /  -10.3 °C 8.4 °F /  -13.1 °C 1028.0 in /  34808.1 hPa Calm   2.6 mph /  4.2 km/h 72 % 0.0 in /  0 mm open2300-1.11 W/m2
16:12 12.9 °F /  -10.6 °C 8.2 °F /  -13.2 °C 1027.7 in /  34797.9 hPa SSW 7.6 mph /  12.2 km/h 7.6 mph /  12.2 km/h 73 % 0.0 in /  0 mm open2300-1.11 W/m2
17:12 12.4 °F /  -10.9 °C 8.1 °F /  -13.3 °C 1027.3 in /  34784.4 hPa Calm     75 % 0.0 in /  0 mm open2300-1.11 W/m2
18:12 10.8 °F /  -11.8 °C 6.9 °F /  -13.9 °C 1027.3 in /  34784.4 hPa Calm   3.2 mph /  5.1 km/h 77 % 0.0 in /  0 mm open2300-1.11 W/m2
19:12 9.8 °F /  -12.3 °C 6.5 °F /  -14.2 °C 1027.3 in /  34784.4 hPa Calm   3.2 mph /  5.1 km/h 80 % 0.0 in /  0 mm open2300-1.11 W/m2
20:12 9.4 °F /  -12.6 °C 6.3 °F /  -14.3 °C 1027.7 in /  34797.9 hPa North 1.8 mph /  2.9 km/h 1.8 mph /  2.9 km/h 81 % 0.0 in /  0 mm open2300-1.11 W/m2
21:12 8.6 °F /  -13 °C 5.7 °F /  -14.6 °C 1027.3 in /  34784.4 hPa NNW 2.1 mph /  3.4 km/h 2.1 mph /  3.4 km/h 82 % 0.0 in /  0 mm open2300-1.11 W/m2
22:12 8.8 °F /  -12.9 °C 6.1 °F /  -14.4 °C 1027.3 in /  34784.4 hPa Calm     83 % 0.0 in /  0 mm open2300-1.11 W/m2
23:12 8.6 °F /  -13 °C 6.1 °F /  -14.4 °C 1027.0 in /  34774.2 hPa Calm     84 % 0.0 in /  0 mm open2300-1.11 W/m2
Observations météo à CASSIS
WU-History script by Weather Underground - 1 mb